createdAt,value
2023-03-22T00:00:18.205Z,11.60
2023-03-22T00:01:39.577Z,11.60
2023-03-22T00:03:00.447Z,11.50
2023-03-22T00:04:21.069Z,11.50
2023-03-22T00:05:41.710Z,11.50
2023-03-22T00:07:02.505Z,11.50
2023-03-22T00:08:23.075Z,11.50
2023-03-22T00:09:43.983Z,11.50
2023-03-22T00:11:06.891Z,11.50
2023-03-22T00:12:27.817Z,11.50
2023-03-22T00:13:48.709Z,11.40
2023-03-22T00:15:10.345Z,11.40
2023-03-22T00:16:31.189Z,11.40
2023-03-22T00:17:52.024Z,11.40
2023-03-22T00:19:13.131Z,11.40
2023-03-22T00:20:34.217Z,11.40
2023-03-22T00:21:55.125Z,11.40
2023-03-22T00:23:16.628Z,11.40
2023-03-22T00:24:37.368Z,11.40
2023-03-22T00:25:58.057Z,11.40
2023-03-22T00:27:20.279Z,11.30
2023-03-22T00:28:40.999Z,11.30
2023-03-22T00:30:02.017Z,11.30
2023-03-22T00:31:22.609Z,11.30
2023-03-22T00:32:43.300Z,11.30
2023-03-22T00:34:04.110Z,11.30
2023-03-22T00:35:25.312Z,11.30
2023-03-22T00:36:46.492Z,11.30
2023-03-22T00:38:07.230Z,11.30
2023-03-22T00:39:30.385Z,11.30
2023-03-22T00:40:51.320Z,11.30
2023-03-22T00:42:12.172Z,11.30
2023-03-22T00:43:34.245Z,11.30
2023-03-22T00:44:54.637Z,11.40
2023-03-22T00:46:16.695Z,11.40
2023-03-22T00:47:37.280Z,11.40
2023-03-22T00:48:58.099Z,11.40
2023-03-22T00:50:18.949Z,11.40
2023-03-22T00:51:39.751Z,11.40
2023-03-22T00:53:00.144Z,11.40
2023-03-22T00:54:21.013Z,11.50
2023-03-22T00:55:41.600Z,11.50
2023-03-22T00:57:02.325Z,11.50
2023-03-22T00:58:23.162Z,11.50
2023-03-22T00:59:45.225Z,11.50
2023-03-22T01:01:06.557Z,11.60
2023-03-22T01:02:27.236Z,11.60
2023-03-22T01:03:47.734Z,11.60
2023-03-22T01:05:09.909Z,11.70
2023-03-22T01:06:30.372Z,11.70
2023-03-22T01:07:50.964Z,11.70
2023-03-22T01:09:11.618Z,11.70
2023-03-22T01:10:32.448Z,11.70
2023-03-22T01:11:53.151Z,11.70
2023-03-22T01:13:13.818Z,11.70
2023-03-22T01:14:34.468Z,11.70
2023-03-22T01:15:57.230Z,11.70
2023-03-22T01:17:18.530Z,11.70
2023-03-22T01:18:39.531Z,11.80
2023-03-22T01:20:00.519Z,11.70
2023-03-22T01:21:20.947Z,11.80
2023-03-22T01:22:41.789Z,11.80
2023-03-22T01:24:02.598Z,11.80
2023-03-22T01:25:23.379Z,11.80
2023-03-22T01:26:44.323Z,11.80
2023-03-22T01:28:05.346Z,11.90
2023-03-22T01:29:26.387Z,11.80
2023-03-22T01:30:47.251Z,11.80
2023-03-22T01:32:09.661Z,11.80
2023-03-22T01:33:30.660Z,11.80
2023-03-22T01:34:51.474Z,11.80
2023-03-22T01:36:12.386Z,11.80
2023-03-22T01:37:33.651Z,11.80
2023-03-22T01:38:54.709Z,11.80
2023-03-22T01:40:15.763Z,11.80
2023-03-22T01:41:36.771Z,11.80
2023-03-22T01:42:57.322Z,11.80
2023-03-22T01:44:19.238Z,11.80
2023-03-22T01:45:42.826Z,11.90
2023-03-22T01:47:03.580Z,11.90
2023-03-22T01:48:27.411Z,11.90
2023-03-22T01:49:47.867Z,11.90
2023-03-22T01:51:11.682Z,11.90
2023-03-22T01:52:32.442Z,11.90
2023-03-22T01:53:55.800Z,11.90
2023-03-22T01:55:16.840Z,11.90
2023-03-22T01:56:40.338Z,12.00
2023-03-22T01:58:01.667Z,12.00
2023-03-22T01:59:22.776Z,12.00
2023-03-22T02:00:43.354Z,12.00
2023-03-22T02:02:04.716Z,12.00
2023-03-22T02:03:32.660Z,12.00
2023-03-22T02:04:53.277Z,12.00
2023-03-22T02:06:14.088Z,12.10
2023-03-22T02:07:34.662Z,12.00
2023-03-22T02:08:55.582Z,12.00
2023-03-22T02:10:18.482Z,12.00
2023-03-22T02:11:40.805Z,12.00
2023-03-22T02:13:12.951Z,12.00
2023-03-22T02:14:45.430Z,12.10
2023-03-22T02:16:12.770Z,12.00
2023-03-22T02:17:38.610Z,12.10
2023-03-22T02:19:16.358Z,12.10
2023-03-22T02:20:58.672Z,12.10
2023-03-22T02:22:51.508Z,12.10
2023-03-22T02:24:47.009Z,12.00
2023-03-22T02:26:45.822Z,11.90
2023-03-22T02:28:17.709Z,11.90
2023-03-22T02:29:42.278Z,12.00
2023-03-22T02:31:43.468Z,12.00
2023-03-22T02:33:21.255Z,12.00
2023-03-22T02:35:24.564Z,11.90
2023-03-22T02:37:25.635Z,11.90
2023-03-22T02:39:00.806Z,11.90
2023-03-22T02:40:27.508Z,11.90
2023-03-22T02:42:12.739Z,11.90
2023-03-22T02:43:36.660Z,11.80
2023-03-22T02:45:01.526Z,11.80
2023-03-22T02:46:25.735Z,11.80
2023-03-22T02:47:54.687Z,11.80
2023-03-22T02:49:20.752Z,11.80
2023-03-22T02:50:44.428Z,11.80
2023-03-22T02:52:11.384Z,11.80
2023-03-22T02:53:36.564Z,11.80
2023-03-22T02:55:03.924Z,11.80
2023-03-22T02:56:27.484Z,11.80
2023-03-22T02:57:50.325Z,11.80
2023-03-22T02:59:12.277Z,11.80
2023-03-22T03:00:33.695Z,11.80
2023-03-22T03:01:56.676Z,11.90
2023-03-22T03:03:19.590Z,11.90
2023-03-22T03:04:43.844Z,11.90
2023-03-22T03:06:06.842Z,11.90
2023-03-22T03:07:28.180Z,11.90
2023-03-22T03:08:49.840Z,11.90
2023-03-22T03:10:13.107Z,12.00
2023-03-22T03:11:33.794Z,12.00
2023-03-22T03:12:54.577Z,12.00
2023-03-22T03:14:23.198Z,11.90
2023-03-22T03:15:48.364Z,12.00
2023-03-22T03:17:17.622Z,11.90
2023-03-22T03:18:42.619Z,11.90
2023-03-22T03:20:17.704Z,11.90
2023-03-22T03:21:43.647Z,11.90
2023-03-22T03:23:14.338Z,11.90
2023-03-22T03:24:41.503Z,11.90
2023-03-22T03:26:08.202Z,11.90
2023-03-22T03:27:32.533Z,11.90
2023-03-22T03:28:58.536Z,11.90
2023-03-22T03:30:23.188Z,11.90
2023-03-22T03:31:47.204Z,11.90
2023-03-22T03:33:11.776Z,11.90
2023-03-22T03:34:35.913Z,11.90
2023-03-22T03:36:00.099Z,11.90
2023-03-22T03:37:23.021Z,11.90
2023-03-22T03:38:47.218Z,11.80
2023-03-22T03:40:11.622Z,11.80
2023-03-22T03:41:34.188Z,11.80
2023-03-22T03:42:56.997Z,11.80
2023-03-22T03:44:18.201Z,11.80
2023-03-22T03:45:39.015Z,11.80
2023-03-22T03:47:00.061Z,11.80
2023-03-22T03:48:23.125Z,11.80
2023-03-22T03:49:43.957Z,11.80
2023-03-22T03:51:05.094Z,11.80
2023-03-22T03:52:26.289Z,11.80
2023-03-22T03:53:47.301Z,11.80
2023-03-22T03:55:08.500Z,11.80
2023-03-22T03:56:29.895Z,11.80
2023-03-22T03:57:52.051Z,11.80
2023-03-22T03:59:12.430Z,11.80
2023-03-22T04:00:33.233Z,11.80
2023-03-22T04:01:54.106Z,11.80
2023-03-22T04:03:15.320Z,11.80
2023-03-22T04:04:36.229Z,11.80
2023-03-22T04:05:56.884Z,11.80
2023-03-22T04:07:18.073Z,11.80
2023-03-22T04:08:38.607Z,11.80
2023-03-22T04:09:59.377Z,11.80
2023-03-22T04:11:20.076Z,11.80
2023-03-22T04:12:40.522Z,11.80
2023-03-22T04:14:03.019Z,11.80
2023-03-22T04:15:23.572Z,11.80
2023-03-22T04:16:44.327Z,11.80
2023-03-22T04:18:05.207Z,11.80
2023-03-22T04:19:25.527Z,11.80
2023-03-22T04:20:46.616Z,11.80
2023-03-22T04:22:07.209Z,11.70
2023-03-22T04:23:27.779Z,11.80
2023-03-22T04:24:48.507Z,11.70
2023-03-22T04:26:08.990Z,11.80
2023-03-22T04:27:29.654Z,11.70
2023-03-22T04:28:50.605Z,11.80
2023-03-22T04:30:14.301Z,11.70
2023-03-22T04:31:35.209Z,11.70
2023-03-22T04:32:56.083Z,11.70
2023-03-22T04:34:16.779Z,11.70
2023-03-22T04:35:37.595Z,11.70
2023-03-22T04:36:58.036Z,11.70
2023-03-22T04:38:18.690Z,11.70
2023-03-22T04:39:39.595Z,11.70
2023-03-22T04:41:00.539Z,11.70
2023-03-22T04:42:21.341Z,11.70
2023-03-22T04:43:41.924Z,11.70
2023-03-22T04:45:02.691Z,11.70
2023-03-22T04:46:24.874Z,11.70
2023-03-22T04:47:45.530Z,11.60
2023-03-22T04:49:06.561Z,11.60
2023-03-22T04:50:27.196Z,11.70
2023-03-22T04:51:47.862Z,11.70
2023-03-22T04:53:08.840Z,11.70
2023-03-22T04:54:29.631Z,11.70
2023-03-22T04:55:50.392Z,11.70
2023-03-22T04:57:11.035Z,11.70
2023-03-22T04:58:31.669Z,11.70
2023-03-22T04:59:52.164Z,11.70
2023-03-22T05:01:14.651Z,11.70
2023-03-22T05:02:37.502Z,11.70
2023-03-22T05:03:59.085Z,11.70
2023-03-22T05:05:19.798Z,11.70
2023-03-22T05:06:40.717Z,11.70
2023-03-22T05:08:01.100Z,11.70
2023-03-22T05:09:23.515Z,11.70
2023-03-22T05:10:44.010Z,11.70
2023-03-22T05:12:04.886Z,11.70
2023-03-22T05:13:27.285Z,11.80
2023-03-22T05:14:47.940Z,11.70
2023-03-22T05:16:09.965Z,11.70
2023-03-22T05:17:30.959Z,11.70
2023-03-22T05:18:53.013Z,11.70
2023-03-22T05:20:13.709Z,11.70
2023-03-22T05:21:34.371Z,11.70
2023-03-22T05:22:55.178Z,11.70
2023-03-22T05:24:15.735Z,11.70
2023-03-22T05:25:36.353Z,11.70
2023-03-22T05:26:56.907Z,11.70
2023-03-22T05:28:18.208Z,11.70
2023-03-22T05:29:38.630Z,11.70
2023-03-22T05:30:59.681Z,11.70
2023-03-22T05:32:20.473Z,11.60
2023-03-22T05:33:40.895Z,11.60
2023-03-22T05:35:03.128Z,11.60
2023-03-22T05:36:24.065Z,11.60
2023-03-22T05:37:44.722Z,11.70
2023-03-22T05:39:05.631Z,11.70
2023-03-22T05:40:26.667Z,11.70
2023-03-22T05:41:47.086Z,11.60
2023-03-22T05:43:07.965Z,11.60
2023-03-22T05:44:28.774Z,11.70
2023-03-22T05:45:50.102Z,11.70
2023-03-22T05:47:10.868Z,11.70
2023-03-22T05:48:31.565Z,11.70
2023-03-22T05:49:52.422Z,11.70
2023-03-22T05:51:15.724Z,11.70
2023-03-22T05:52:36.623Z,11.70
2023-03-22T05:53:57.382Z,11.70
2023-03-22T05:55:18.347Z,11.70
2023-03-22T05:56:39.207Z,11.80
2023-03-22T05:58:00.121Z,11.70
2023-03-22T05:59:20.580Z,11.70
2023-03-22T06:00:41.621Z,11.70
2023-03-22T06:02:02.705Z,11.70
2023-03-22T06:03:23.333Z,11.70
2023-03-22T06:04:43.800Z,11.70
2023-03-22T06:06:05.446Z,11.70
2023-03-22T06:07:27.512Z,11.70
2023-03-22T06:08:47.910Z,11.80
2023-03-22T06:10:12.017Z,11.80
2023-03-22T06:11:32.553Z,11.70
2023-03-22T06:12:53.516Z,11.80
2023-03-22T06:14:14.389Z,11.80
2023-03-22T06:15:35.600Z,11.80
2023-03-22T06:16:56.228Z,11.80
2023-03-22T06:18:17.038Z,11.80
2023-03-22T06:19:37.741Z,11.80
2023-03-22T06:20:58.664Z,11.90
2023-03-22T06:22:19.294Z,11.90
2023-03-22T06:23:41.263Z,11.80
2023-03-22T06:25:01.780Z,11.90
2023-03-22T06:26:22.622Z,11.90
2023-03-22T06:27:43.646Z,11.90
2023-03-22T06:29:04.412Z,11.90
2023-03-22T06:30:25.118Z,11.90
2023-03-22T06:31:46.275Z,11.80
2023-03-22T06:33:06.827Z,11.90
2023-03-22T06:34:27.872Z,11.80
2023-03-22T06:35:48.411Z,11.90
2023-03-22T06:37:09.607Z,11.90
2023-03-22T06:38:30.770Z,11.90
2023-03-22T06:39:52.802Z,11.90
2023-03-22T06:41:13.648Z,11.90
2023-03-22T06:42:35.947Z,11.90
2023-03-22T06:43:56.880Z,11.80
2023-03-22T06:45:17.726Z,11.90
2023-03-22T06:46:38.360Z,11.80
2023-03-22T06:47:59.340Z,11.90
2023-03-22T06:49:19.999Z,11.80
2023-03-22T06:50:43.997Z,11.80
2023-03-22T06:52:05.264Z,11.80
2023-03-22T06:53:26.045Z,11.80
2023-03-22T06:54:47.296Z,11.90
2023-03-22T06:56:09.882Z,11.90
2023-03-22T06:57:30.615Z,11.80
2023-03-22T06:58:51.590Z,11.90
2023-03-22T07:00:13.683Z,11.90
2023-03-22T07:01:35.323Z,11.90
2023-03-22T07:02:56.381Z,11.90
2023-03-22T07:04:17.173Z,11.90
2023-03-22T07:05:37.840Z,12.00
2023-03-22T07:06:58.478Z,12.00
2023-03-22T07:08:19.339Z,12.00
2023-03-22T07:09:40.487Z,12.00
2023-03-22T07:11:01.784Z,12.10
2023-03-22T07:12:24.437Z,12.10
2023-03-22T07:13:45.730Z,12.00
2023-03-22T07:15:08.678Z,12.00
2023-03-22T07:16:30.388Z,12.00
2023-03-22T07:17:51.430Z,12.00
2023-03-22T07:19:13.048Z,12.00
2023-03-22T07:20:33.427Z,12.10
2023-03-22T07:21:54.872Z,12.10
2023-03-22T07:23:15.569Z,12.10
2023-03-22T07:24:42.311Z,12.20
2023-03-22T07:26:11.310Z,12.20
2023-03-22T07:27:33.178Z,12.10
2023-03-22T07:28:53.643Z,12.20
2023-03-22T07:30:14.733Z,12.20
2023-03-22T07:31:35.859Z,12.20
2023-03-22T07:32:56.627Z,12.20
2023-03-22T07:34:17.904Z,12.30
2023-03-22T07:35:39.018Z,12.20
2023-03-22T07:37:00.086Z,12.30
2023-03-22T07:38:20.913Z,12.30
2023-03-22T07:39:42.017Z,12.30
2023-03-22T07:41:03.302Z,12.30
2023-03-22T07:42:24.548Z,12.20
2023-03-22T07:43:55.194Z,12.30
2023-03-22T07:45:20.532Z,12.30
2023-03-22T07:46:41.367Z,12.30
2023-03-22T07:48:02.013Z,12.30
2023-03-22T07:49:22.839Z,12.30
2023-03-22T07:50:43.726Z,12.20
2023-03-22T07:52:04.951Z,12.30
2023-03-22T07:53:25.849Z,12.20
2023-03-22T07:54:46.456Z,12.20
2023-03-22T07:56:08.205Z,12.20
2023-03-22T07:57:28.721Z,12.20
2023-03-22T07:58:51.375Z,12.20
2023-03-22T08:00:13.666Z,12.10
2023-03-22T08:01:34.392Z,12.10
2023-03-22T08:02:55.429Z,12.10
2023-03-22T08:04:16.062Z,12.20
2023-03-22T08:05:36.580Z,12.20
2023-03-22T08:06:57.429Z,12.20
2023-03-22T08:08:19.286Z,12.20
2023-03-22T08:09:41.494Z,12.10
2023-03-22T08:11:02.101Z,12.20
2023-03-22T08:12:23.622Z,12.10
2023-03-22T08:13:44.702Z,12.10
2023-03-22T08:15:08.268Z,12.10
2023-03-22T08:16:28.732Z,12.10
2023-03-22T08:17:50.168Z,12.00
2023-03-22T08:19:11.352Z,12.00
2023-03-22T08:20:32.046Z,11.90
2023-03-22T08:21:52.953Z,11.90
2023-03-22T08:23:13.913Z,11.90
2023-03-22T08:24:34.723Z,11.90
2023-03-22T08:25:55.455Z,11.90
2023-03-22T08:27:16.436Z,11.90
2023-03-22T08:28:37.977Z,11.80
2023-03-22T08:29:58.852Z,11.80
2023-03-22T08:31:21.428Z,11.80
2023-03-22T08:32:42.987Z,11.80
2023-03-22T08:34:03.739Z,11.80
2023-03-22T08:35:24.749Z,11.70
2023-03-22T08:36:45.454Z,11.70
2023-03-22T08:38:06.036Z,11.70
2023-03-22T08:39:27.105Z,11.70
2023-03-22T08:40:47.682Z,11.60
2023-03-22T08:42:09.273Z,11.60
2023-03-22T08:43:29.974Z,11.70
2023-03-22T08:44:50.417Z,11.70
2023-03-22T08:46:10.945Z,11.60
2023-03-22T08:47:32.944Z,11.60
2023-03-22T08:48:53.911Z,11.60
2023-03-22T08:50:17.851Z,11.60
2023-03-22T08:51:39.907Z,11.60
2023-03-22T08:53:00.477Z,11.60
2023-03-22T08:54:21.282Z,11.70
2023-03-22T08:55:43.344Z,11.60
2023-03-22T08:57:04.123Z,11.60
2023-03-22T08:58:25.010Z,11.70
2023-03-22T08:59:45.686Z,11.60
2023-03-22T09:01:11.668Z,11.70
2023-03-22T09:02:33.800Z,11.60
2023-03-22T09:03:54.396Z,11.50
2023-03-22T09:05:15.104Z,11.50
2023-03-22T09:06:36.194Z,11.60
2023-03-22T09:08:02.592Z,11.60
2023-03-22T09:09:26.935Z,11.60
2023-03-22T09:10:48.293Z,11.60
2023-03-22T09:12:09.216Z,11.50
2023-03-22T09:13:30.082Z,11.60
2023-03-22T09:14:50.995Z,11.60
2023-03-22T09:16:11.850Z,11.60
2023-03-22T09:17:33.877Z,11.60
2023-03-22T09:18:54.485Z,11.60
2023-03-22T09:20:15.363Z,11.50
2023-03-22T09:21:36.001Z,11.60
2023-03-22T09:22:56.752Z,11.60
2023-03-22T09:24:17.383Z,11.60
2023-03-22T09:25:38.506Z,11.70
2023-03-22T09:26:58.876Z,11.60
2023-03-22T09:28:19.462Z,11.60
2023-03-22T09:29:40.054Z,11.60
2023-03-22T09:31:00.914Z,11.60
2023-03-22T09:32:21.477Z,11.60
2023-03-22T09:33:43.429Z,11.70
2023-03-22T09:35:04.521Z,11.60
2023-03-22T09:36:24.881Z,11.60
2023-03-22T09:37:45.496Z,11.60
2023-03-22T09:39:06.520Z,11.60
2023-03-22T09:40:28.802Z,11.60
2023-03-22T09:41:52.848Z,11.50
2023-03-22T09:43:15.456Z,11.50
2023-03-22T09:44:39.796Z,11.60
2023-03-22T09:46:00.745Z,11.60
2023-03-22T09:47:28.779Z,11.60
2023-03-22T09:48:59.054Z,11.60
2023-03-22T09:50:22.724Z,11.60
2023-03-22T09:51:45.466Z,11.60
2023-03-22T09:53:09.487Z,11.60
2023-03-22T09:54:33.163Z,11.60
2023-03-22T09:55:59.126Z,11.50
2023-03-22T09:57:25.279Z,11.60
2023-03-22T09:58:49.330Z,11.60
2023-03-22T10:00:16.022Z,11.50
2023-03-22T10:01:42.268Z,11.50
2023-03-22T10:03:11.631Z,11.50
2023-03-22T10:04:48.760Z,11.50
2023-03-22T10:06:12.457Z,11.50
2023-03-22T10:07:34.745Z,11.60
2023-03-22T10:09:00.145Z,11.50
2023-03-22T10:10:22.600Z,11.50
2023-03-22T10:11:46.508Z,11.50
2023-03-22T10:13:13.068Z,11.50
2023-03-22T10:14:36.241Z,11.60
2023-03-22T10:15:58.372Z,11.50
2023-03-22T10:17:22.507Z,11.60
2023-03-22T10:18:45.986Z,11.50
2023-03-22T10:20:17.243Z,11.50
2023-03-22T10:21:38.897Z,11.50
2023-03-22T10:23:01.075Z,11.50
2023-03-22T10:24:25.769Z,11.50
2023-03-22T10:25:46.442Z,11.50
2023-03-22T10:27:15.108Z,11.50
2023-03-22T10:28:38.567Z,11.50
2023-03-22T10:30:01.408Z,11.60
2023-03-22T10:31:22.270Z,11.50
2023-03-22T10:32:57.236Z,11.50
2023-03-22T10:34:22.803Z,11.50
2023-03-22T10:35:44.740Z,11.50
2023-03-22T10:37:06.328Z,11.60
2023-03-22T10:38:27.909Z,11.60
2023-03-22T10:39:51.425Z,11.60
2023-03-22T10:41:14.174Z,11.60
2023-03-22T10:42:37.072Z,11.60
2023-03-22T10:44:00.111Z,11.70
2023-03-22T10:45:21.242Z,11.70
2023-03-22T10:46:42.787Z,11.70
2023-03-22T10:48:05.787Z,11.70
2023-03-22T10:49:31.587Z,11.70
2023-03-22T10:50:55.994Z,11.70
2023-03-22T10:52:34.565Z,11.80
2023-03-22T10:53:59.835Z,11.80
2023-03-22T10:55:22.974Z,11.80
2023-03-22T10:56:46.308Z,11.80
2023-03-22T10:58:16.925Z,11.80
2023-03-22T10:59:53.495Z,11.80
2023-03-22T11:01:17.397Z,11.90
2023-03-22T11:02:47.352Z,11.90
2023-03-22T11:04:12.447Z,11.90
2023-03-22T11:05:36.824Z,12.00
2023-03-22T11:06:59.074Z,12.00
2023-03-22T11:08:20.999Z,12.00
2023-03-22T11:09:42.216Z,12.00
2023-03-22T11:11:06.975Z,12.00
2023-03-22T11:12:31.586Z,12.10
2023-03-22T11:14:02.187Z,12.10
2023-03-22T11:15:31.103Z,12.10
2023-03-22T11:16:55.127Z,12.10
2023-03-22T11:18:19.020Z,12.10
2023-03-22T11:19:43.563Z,12.10
2023-03-22T11:21:07.662Z,12.10
2023-03-22T11:22:36.753Z,12.10
2023-03-22T11:24:01.515Z,12.10
2023-03-22T11:25:27.931Z,12.20
2023-03-22T11:27:03.229Z,12.20
2023-03-22T11:28:30.730Z,12.30
2023-03-22T11:29:57.773Z,12.30
2023-03-22T11:31:24.136Z,12.30
2023-03-22T11:32:47.440Z,12.30
2023-03-22T11:34:17.992Z,12.30
2023-03-22T11:35:40.232Z,12.20
2023-03-22T11:37:01.584Z,12.20
2023-03-22T11:38:29.898Z,12.20
2023-03-22T11:40:01.009Z,12.30
2023-03-22T11:41:25.294Z,12.30
2023-03-22T11:42:46.305Z,12.20
2023-03-22T11:44:11.919Z,12.30
2023-03-22T11:45:41.633Z,12.30
2023-03-22T11:47:04.016Z,12.30
2023-03-22T11:48:29.411Z,12.30
2023-03-22T11:49:55.171Z,12.30
2023-03-22T11:51:29.113Z,12.30
2023-03-22T11:52:55.113Z,12.30
2023-03-22T11:54:26.870Z,12.40
2023-03-22T11:55:56.854Z,12.40
2023-03-22T11:57:25.219Z,12.40
2023-03-22T11:58:55.799Z,12.40
2023-03-22T12:00:22.232Z,12.40
2023-03-22T12:01:49.279Z,12.40
2023-03-22T12:03:16.663Z,12.40
2023-03-22T12:04:42.160Z,12.40
2023-03-22T12:06:03.348Z,12.50
2023-03-22T12:07:26.753Z,12.50
2023-03-22T12:08:52.340Z,12.50
2023-03-22T12:10:19.055Z,12.50
2023-03-22T12:11:46.542Z,12.50
2023-03-22T12:13:19.483Z,12.50
2023-03-22T12:14:46.976Z,12.60
2023-03-22T12:16:10.155Z,12.50
2023-03-22T12:17:38.015Z,12.60
2023-03-22T12:19:07.190Z,12.60
2023-03-22T12:20:39.477Z,12.60
2023-03-22T12:22:03.124Z,12.60
2023-03-22T12:23:26.324Z,12.60
2023-03-22T12:24:47.755Z,12.60
2023-03-22T12:26:17.928Z,12.60
2023-03-22T12:27:42.621Z,12.60
2023-03-22T12:29:05.888Z,12.60
2023-03-22T12:30:30.147Z,12.60
2023-03-22T12:31:58.887Z,12.70
2023-03-22T12:33:22.959Z,12.70
2023-03-22T12:34:48.785Z,12.70
2023-03-22T12:36:13.957Z,12.70
2023-03-22T12:37:36.150Z,12.70
2023-03-22T12:38:58.872Z,12.70
2023-03-22T12:40:23.317Z,12.80
2023-03-22T12:41:48.103Z,12.80
2023-03-22T12:43:13.789Z,12.80
2023-03-22T12:44:38.045Z,12.90
2023-03-22T12:46:00.614Z,12.80
2023-03-22T12:47:25.430Z,12.90
2023-03-22T12:48:49.581Z,12.90
2023-03-22T12:50:14.123Z,12.90
2023-03-22T12:51:35.365Z,12.90
2023-03-22T12:52:57.070Z,12.90
2023-03-22T12:54:19.506Z,12.90
2023-03-22T12:55:41.657Z,12.90
2023-03-22T12:57:04.618Z,12.90
2023-03-22T12:58:26.631Z,13.00
2023-03-22T12:59:49.762Z,13.00
2023-03-22T13:01:21.885Z,13.00
2023-03-22T13:02:50.202Z,13.00
2023-03-22T13:04:33.244Z,13.00
2023-03-22T13:06:01.920Z,13.00
2023-03-22T13:07:38.143Z,13.00
2023-03-22T13:09:14.740Z,13.00
2023-03-22T13:10:42.325Z,13.00
2023-03-22T13:12:32.126Z,13.00
2023-03-22T13:13:52.816Z,13.10
2023-03-22T13:15:41.325Z,13.10
2023-03-22T13:17:06.696Z,13.00
2023-03-22T13:18:37.793Z,13.00
2023-03-22T13:20:00.714Z,13.10
2023-03-22T13:21:23.002Z,13.10
2023-03-22T13:23:10.374Z,13.10
2023-03-22T13:24:32.462Z,13.10
2023-03-22T13:26:06.741Z,13.10
2023-03-22T13:27:36.598Z,13.10
2023-03-22T13:29:08.086Z,13.10
2023-03-22T13:30:34.457Z,13.10
2023-03-22T13:32:00.673Z,13.10
2023-03-22T13:33:25.828Z,13.20
2023-03-22T13:34:51.573Z,13.20
2023-03-22T13:36:23.348Z,13.20
2023-03-22T13:37:47.566Z,13.20
2023-03-22T13:39:10.133Z,13.20
2023-03-22T13:40:36.735Z,13.30
2023-03-22T13:42:07.813Z,13.30
2023-03-22T13:43:32.734Z,13.30
2023-03-22T13:44:55.257Z,13.30
2023-03-22T13:46:44.683Z,13.30
2023-03-22T13:48:10.976Z,13.30
2023-03-22T13:49:49.727Z,13.30
2023-03-22T13:51:16.908Z,13.30
2023-03-22T13:52:42.453Z,13.30
2023-03-22T13:54:10.509Z,13.30
2023-03-22T13:56:02.065Z,13.30
2023-03-22T13:57:38.775Z,13.30
2023-03-22T13:59:01.874Z,13.30
2023-03-22T14:00:49.187Z,13.30
2023-03-22T14:02:16.825Z,13.30
2023-03-22T14:03:41.985Z,13.30
2023-03-22T14:05:09.697Z,13.30
2023-03-22T14:06:32.042Z,13.20
2023-03-22T14:07:54.199Z,13.30
2023-03-22T14:09:23.043Z,13.30
2023-03-22T14:10:46.770Z,13.30
2023-03-22T14:12:19.023Z,13.30
2023-03-22T14:13:43.919Z,13.30
2023-03-22T14:15:07.639Z,13.40
2023-03-22T14:16:36.077Z,13.40
2023-03-22T14:18:00.349Z,13.30
2023-03-22T14:19:23.580Z,13.40
2023-03-22T14:20:44.935Z,13.40
